sensor_id;sensor_type;location;lat;lon;timestamp;temperature;humidity
67557;DHT22;54387;53.526;49.300;2022-12-18T00:01:33;-0.10;68.00
67557;DHT22;54387;53.526;49.300;2022-12-18T00:03:59;-0.10;68.10
67557;DHT22;54387;53.526;49.300;2022-12-18T00:06:26;-0.10;68.20
67557;DHT22;54387;53.526;49.300;2022-12-18T00:08:53;-0.10;68.40
67557;DHT22;54387;53.526;49.300;2022-12-18T00:11:21;-0.10;68.50
67557;DHT22;54387;53.526;49.300;2022-12-18T00:13:47;0.00;68.70
67557;DHT22;54387;53.526;49.300;2022-12-18T00:16:15;-0.10;68.70
67557;DHT22;54387;53.526;49.300;2022-12-18T00:18:41;-0.10;68.80
67557;DHT22;54387;53.526;49.300;2022-12-18T00:21:08;-0.10;68.90
67557;DHT22;54387;53.526;49.300;2022-12-18T00:23:36;-0.10;68.90
67557;DHT22;54387;53.526;49.300;2022-12-18T00:26:03;-0.10;68.90
67557;DHT22;54387;53.526;49.300;2022-12-18T00:28:30;0.00;68.90
67557;DHT22;54387;53.526;49.300;2022-12-18T00:31:00;0.00;68.80
67557;DHT22;54387;53.526;49.300;2022-12-18T00:33:26;0.10;68.80
67557;DHT22;54387;53.526;49.300;2022-12-18T00:35:52;0.20;68.60
67557;DHT22;54387;53.526;49.300;2022-12-18T00:38:18;0.30;68.50
67557;DHT22;54387;53.526;49.300;2022-12-18T00:40:44;0.40;68.50
67557;DHT22;54387;53.526;49.300;2022-12-18T00:43:10;0.40;68.40
67557;DHT22;54387;53.526;49.300;2022-12-18T00:45:36;0.50;68.30
67557;DHT22;54387;53.526;49.300;2022-12-18T00:48:02;0.50;68.30
67557;DHT22;54387;53.526;49.300;2022-12-18T00:50:28;0.60;68.20
67557;DHT22;54387;53.526;49.300;2022-12-18T00:52:54;0.60;68.00
67557;DHT22;54387;53.526;49.300;2022-12-18T00:55:20;0.50;67.90
67557;DHT22;54387;53.526;49.300;2022-12-18T00:57:46;0.50;67.90
67557;DHT22;54387;53.526;49.300;2022-12-18T01:00:13;0.50;67.90
67557;DHT22;54387;53.526;49.300;2022-12-18T01:02:39;0.60;68.00
67557;DHT22;54387;53.526;49.300;2022-12-18T01:05:09;0.60;68.10
67557;DHT22;54387;53.526;49.300;2022-12-18T01:07:35;0.50;68.20
67557;DHT22;54387;53.526;49.300;2022-12-18T01:10:01;0.50;68.40
67557;DHT22;54387;53.526;49.300;2022-12-18T01:12:28;0.50;68.40
67557;DHT22;54387;53.526;49.300;2022-12-18T01:14:54;0.60;68.40
67557;DHT22;54387;53.526;49.300;2022-12-18T01:17:19;0.60;68.60
67557;DHT22;54387;53.526;49.300;2022-12-18T01:19:45;0.60;68.80
67557;DHT22;54387;53.526;49.300;2022-12-18T01:22:11;0.60;69.00
67557;DHT22;54387;53.526;49.300;2022-12-18T01:24:37;0.60;69.30
67557;DHT22;54387;53.526;49.300;2022-12-18T01:27:03;0.50;69.50
67557;DHT22;54387;53.526;49.300;2022-12-18T01:29:29;0.60;69.60
67557;DHT22;54387;53.526;49.300;2022-12-18T01:31:55;0.60;69.80
67557;DHT22;54387;53.526;49.300;2022-12-18T01:34:22;0.70;69.90
67557;DHT22;54387;53.526;49.300;2022-12-18T01:36:48;0.70;70.00
67557;DHT22;54387;53.526;49.300;2022-12-18T01:39:14;0.80;70.00
67557;DHT22;54387;53.526;49.300;2022-12-18T01:41:41;0.90;70.10
67557;DHT22;54387;53.526;49.300;2022-12-18T01:47:12;1.00;70.10
67557;DHT22;54387;53.526;49.300;2022-12-18T01:49:39;1.00;70.20
67557;DHT22;54387;53.526;49.300;2022-12-18T01:52:05;1.00;70.20
67557;DHT22;54387;53.526;49.300;2022-12-18T01:54:31;1.00;70.30
67557;DHT22;54387;53.526;49.300;2022-12-18T01:56:57;1.00;70.50
67557;DHT22;54387;53.526;49.300;2022-12-18T01:59:23;1.00;70.60
67557;DHT22;54387;53.526;49.300;2022-12-18T02:01:49;1.00;70.70
67557;DHT22;54387;53.526;49.300;2022-12-18T02:04:22;1.10;70.80
67557;DHT22;54387;53.526;49.300;2022-12-18T02:07:23;1.10;70.90
67557;DHT22;54387;53.526;49.300;2022-12-18T02:09:46;1.20;70.80
67557;DHT22;54387;53.526;49.300;2022-12-18T02:12:16;1.20;70.70
67557;DHT22;54387;53.526;49.300;2022-12-18T02:17:43;1.30;70.60
67557;DHT22;54387;53.526;49.300;2022-12-18T02:20:18;1.20;70.50
67557;DHT22;54387;53.526;49.300;2022-12-18T02:28:16;1.30;70.50
67557;DHT22;54387;53.526;49.300;2022-12-18T02:30:43;1.20;70.40
67557;DHT22;54387;53.526;49.300;2022-12-18T02:33:10;1.20;70.40
67557;DHT22;54387;53.526;49.300;2022-12-18T02:35:36;1.20;70.50
67557;DHT22;54387;53.526;49.300;2022-12-18T02:38:04;1.30;70.40
67557;DHT22;54387;53.526;49.300;2022-12-18T02:40:30;1.30;70.40
67557;DHT22;54387;53.526;49.300;2022-12-18T02:43:02;1.30;70.30
67557;DHT22;54387;53.526;49.300;2022-12-18T02:45:28;1.30;70.40
67557;DHT22;54387;53.526;49.300;2022-12-18T02:47:54;1.30;70.50
67557;DHT22;54387;53.526;49.300;2022-12-18T02:50:36;1.30;70.30
67557;DHT22;54387;53.526;49.300;2022-12-18T03:00:48;1.40;70.20
67557;DHT22;54387;53.526;49.300;2022-12-18T03:03:24;1.30;70.30
67557;DHT22;54387;53.526;49.300;2022-12-18T03:06:02;1.30;70.50
67557;DHT22;54387;53.526;49.300;2022-12-18T03:08:31;1.30;70.60
67557;DHT22;54387;53.526;49.300;2022-12-18T03:11:01;1.20;70.50
67557;DHT22;54387;53.526;49.300;2022-12-18T03:13:28;1.20;70.70
67557;DHT22;54387;53.526;49.300;2022-12-18T03:15:56;1.20;70.70
67557;DHT22;54387;53.526;49.300;2022-12-18T03:18:25;1.30;70.80
67557;DHT22;54387;53.526;49.300;2022-12-18T03:20:52;1.20;70.70
67557;DHT22;54387;53.526;49.300;2022-12-18T03:23:21;1.30;70.80
67557;DHT22;54387;53.526;49.300;2022-12-18T03:25:48;1.30;70.90
67557;DHT22;54387;53.526;49.300;2022-12-18T03:28:16;1.20;71.60
67557;DHT22;54387;53.526;49.300;2022-12-18T03:30:46;1.30;71.30
67557;DHT22;54387;53.526;49.300;2022-12-18T03:33:21;1.30;71.40
67557;DHT22;54387;53.526;49.300;2022-12-18T03:35:49;1.30;71.50
67557;DHT22;54387;53.526;49.300;2022-12-18T03:38:15;1.30;71.70
67557;DHT22;54387;53.526;49.300;2022-12-18T03:40:47;1.30;71.70
67557;DHT22;54387;53.526;49.300;2022-12-18T03:43:20;1.40;71.90
67557;DHT22;54387;53.526;49.300;2022-12-18T03:45:53;1.40;72.50
67557;DHT22;54387;53.526;49.300;2022-12-18T03:48:30;1.40;72.00
67557;DHT22;54387;53.526;49.300;2022-12-18T03:50:59;1.40;72.00
67557;DHT22;54387;53.526;49.300;2022-12-18T03:53:33;1.40;72.10
67557;DHT22;54387;53.526;49.300;2022-12-18T03:56:01;1.40;72.30
67557;DHT22;54387;53.526;49.300;2022-12-18T03:58:29;1.30;72.60
67557;DHT22;54387;53.526;49.300;2022-12-18T04:00:58;1.30;72.80
67557;DHT22;54387;53.526;49.300;2022-12-18T04:03:25;1.30;73.00
67557;DHT22;54387;53.526;49.300;2022-12-18T04:05:52;1.30;73.20
67557;DHT22;54387;53.526;49.300;2022-12-18T04:08:20;1.40;73.30
67557;DHT22;54387;53.526;49.300;2022-12-18T04:10:46;1.40;73.30
67557;DHT22;54387;53.526;49.300;2022-12-18T04:13:13;1.40;73.30
67557;DHT22;54387;53.526;49.300;2022-12-18T04:15:46;1.40;73.40
67557;DHT22;54387;53.526;49.300;2022-12-18T04:18:12;1.40;73.30
67557;DHT22;54387;53.526;49.300;2022-12-18T04:20:38;1.50;73.20
67557;DHT22;54387;53.526;49.300;2022-12-18T04:23:04;1.50;73.10
67557;DHT22;54387;53.526;49.300;2022-12-18T04:25:30;1.50;73.20
67557;DHT22;54387;53.526;49.300;2022-12-18T04:27:59;1.50;73.20
67557;DHT22;54387;53.526;49.300;2022-12-18T04:30:25;1.60;73.40
67557;DHT22;54387;53.526;49.300;2022-12-18T04:32:51;1.60;73.50
67557;DHT22;54387;53.526;49.300;2022-12-18T04:35:17;1.70;73.50
67557;DHT22;54387;53.526;49.300;2022-12-18T04:37:43;1.70;73.50
67557;DHT22;54387;53.526;49.300;2022-12-18T04:40:09;1.70;73.50
67557;DHT22;54387;53.526;49.300;2022-12-18T04:42:36;1.80;73.60
67557;DHT22;54387;53.526;49.300;2022-12-18T04:45:02;1.80;73.50
67557;DHT22;54387;53.526;49.300;2022-12-18T04:47:28;1.80;73.50
67557;DHT22;54387;53.526;49.300;2022-12-18T04:49:53;1.80;73.50
67557;DHT22;54387;53.526;49.300;2022-12-18T04:52:19;1.80;73.50
67557;DHT22;54387;53.526;49.300;2022-12-18T04:54:45;1.80;73.60
67557;DHT22;54387;53.526;49.300;2022-12-18T04:57:11;1.90;73.60
67557;DHT22;54387;53.526;49.300;2022-12-18T04:59:37;1.90;73.70
67557;DHT22;54387;53.526;49.300;2022-12-18T05:02:03;1.90;73.60
67557;DHT22;54387;53.526;49.300;2022-12-18T05:04:29;1.90;73.50
67557;DHT22;54387;53.526;49.300;2022-12-18T05:06:55;1.90;73.50
67557;DHT22;54387;53.526;49.300;2022-12-18T05:09:22;1.90;73.60
67557;DHT22;54387;53.526;49.300;2022-12-18T05:11:48;1.80;73.80
67557;DHT22;54387;53.526;49.300;2022-12-18T05:14:14;1.80;73.90
67557;DHT22;54387;53.526;49.300;2022-12-18T05:16:40;1.80;74.10
67557;DHT22;54387;53.526;49.300;2022-12-18T05:19:06;1.80;74.80
67557;DHT22;54387;53.526;49.300;2022-12-18T05:21:32;1.90;74.40
67557;DHT22;54387;53.526;49.300;2022-12-18T05:23:58;1.90;74.40
67557;DHT22;54387;53.526;49.300;2022-12-18T05:26:24;2.00;74.40
67557;DHT22;54387;53.526;49.300;2022-12-18T05:28:50;2.00;74.40
67557;DHT22;54387;53.526;49.300;2022-12-18T05:31:16;2.00;74.20
67557;DHT22;54387;53.526;49.300;2022-12-18T05:33:43;2.00;74.10
67557;DHT22;54387;53.526;49.300;2022-12-18T05:36:09;2.00;74.00
67557;DHT22;54387;53.526;49.300;2022-12-18T05:38:36;1.90;73.90
67557;DHT22;54387;53.526;49.300;2022-12-18T05:41:02;1.90;74.10
67557;DHT22;54387;53.526;49.300;2022-12-18T05:43:28;1.90;74.20
67557;DHT22;54387;53.526;49.300;2022-12-18T05:45:54;1.90;74.30
67557;DHT22;54387;53.526;49.300;2022-12-18T05:48:21;1.90;74.30
67557;DHT22;54387;53.526;49.300;2022-12-18T05:50:47;1.90;74.40
67557;DHT22;54387;53.526;49.300;2022-12-18T05:53:14;2.00;74.60
67557;DHT22;54387;53.526;49.300;2022-12-18T05:55:41;2.00;74.60
67557;DHT22;54387;53.526;49.300;2022-12-18T05:58:07;2.00;74.40
67557;DHT22;54387;53.526;49.300;2022-12-18T06:00:35;2.10;74.40
67557;DHT22;54387;53.526;49.300;2022-12-18T06:03:01;2.00;74.30
67557;DHT22;54387;53.526;49.300;2022-12-18T06:05:27;2.10;74.20
67557;DHT22;54387;53.526;49.300;2022-12-18T06:07:53;2.10;74.00
67557;DHT22;54387;53.526;49.300;2022-12-18T06:10:19;2.10;73.90
67557;DHT22;54387;53.526;49.300;2022-12-18T06:12:45;2.10;73.60
67557;DHT22;54387;53.526;49.300;2022-12-18T06:15:11;2.00;73.30
67557;DHT22;54387;53.526;49.300;2022-12-18T06:17:37;2.00;73.20
67557;DHT22;54387;53.526;49.300;2022-12-18T06:20:03;2.00;73.10
67557;DHT22;54387;53.526;49.300;2022-12-18T06:22:30;1.90;73.10
67557;DHT22;54387;53.526;49.300;2022-12-18T06:24:56;2.00;73.00
67557;DHT22;54387;53.526;49.300;2022-12-18T06:27:22;1.90;72.80
67557;DHT22;54387;53.526;49.300;2022-12-18T06:29:48;1.90;72.90
67557;DHT22;54387;53.526;49.300;2022-12-18T06:32:14;1.90;72.80
67557;DHT22;54387;53.526;49.300;2022-12-18T06:34:40;1.90;72.70
67557;DHT22;54387;53.526;49.300;2022-12-18T06:37:06;1.90;72.50
67557;DHT22;54387;53.526;49.300;2022-12-18T06:39:33;1.90;72.20
67557;DHT22;54387;53.526;49.300;2022-12-18T06:41:59;1.90;72.20
67557;DHT22;54387;53.526;49.300;2022-12-18T06:44:25;1.90;72.10
67557;DHT22;54387;53.526;49.300;2022-12-18T06:46:51;1.90;71.90
67557;DHT22;54387;53.526;49.300;2022-12-18T06:49:17;1.90;71.90
67557;DHT22;54387;53.526;49.300;2022-12-18T06:51:44;1.90;71.90
67557;DHT22;54387;53.526;49.300;2022-12-18T06:54:11;1.90;71.70
67557;DHT22;54387;53.526;49.300;2022-12-18T06:56:37;1.90;71.60
67557;DHT22;54387;53.526;49.300;2022-12-18T06:59:03;1.90;71.40
67557;DHT22;54387;53.526;49.300;2022-12-18T07:01:29;1.90;71.20
67557;DHT22;54387;53.526;49.300;2022-12-18T07:03:55;1.90;71.00
67557;DHT22;54387;53.526;49.300;2022-12-18T07:06:23;1.90;71.00
67557;DHT22;54387;53.526;49.300;2022-12-18T07:08:49;1.90;71.00
67557;DHT22;54387;53.526;49.300;2022-12-18T07:11:16;1.90;71.00
67557;DHT22;54387;53.526;49.300;2022-12-18T07:13:42;1.90;70.80
67557;DHT22;54387;53.526;49.300;2022-12-18T07:16:09;1.90;70.70
67557;DHT22;54387;53.526;49.300;2022-12-18T07:18:36;1.90;70.50
67557;DHT22;54387;53.526;49.300;2022-12-18T07:21:03;1.90;70.50
67557;DHT22;54387;53.526;49.300;2022-12-18T07:23:29;1.90;70.50
67557;DHT22;54387;53.526;49.300;2022-12-18T07:25:55;1.90;70.50
67557;DHT22;54387;53.526;49.300;2022-12-18T07:28:21;1.90;70.30
67557;DHT22;54387;53.526;49.300;2022-12-18T07:30:47;1.90;70.20
67557;DHT22;54387;53.526;49.300;2022-12-18T07:33:13;1.90;70.20
67557;DHT22;54387;53.526;49.300;2022-12-18T07:35:39;1.90;70.20
67557;DHT22;54387;53.526;49.300;2022-12-18T07:38:05;2.00;70.30
67557;DHT22;54387;53.526;49.300;2022-12-18T07:40:31;1.90;69.90
67557;DHT22;54387;53.526;49.300;2022-12-18T07:42:57;1.80;69.80
67557;DHT22;54387;53.526;49.300;2022-12-18T07:45:23;1.80;69.90
67557;DHT22;54387;53.526;49.300;2022-12-18T07:47:49;1.80;70.00
67557;DHT22;54387;53.526;49.300;2022-12-18T07:50:15;1.80;70.00
67557;DHT22;54387;53.526;49.300;2022-12-18T07:52:41;1.80;70.00
67557;DHT22;54387;53.526;49.300;2022-12-18T07:55:07;1.80;70.00
67557;DHT22;54387;53.526;49.300;2022-12-18T07:57:33;1.70;70.00
67557;DHT22;54387;53.526;49.300;2022-12-18T07:59:59;1.80;70.00
67557;DHT22;54387;53.526;49.300;2022-12-18T08:02:25;1.80;70.10
67557;DHT22;54387;53.526;49.300;2022-12-18T08:04:51;1.80;70.10
67557;DHT22;54387;53.526;49.300;2022-12-18T08:07:17;1.80;70.10
67557;DHT22;54387;53.526;49.300;2022-12-18T08:09:43;1.80;70.30
67557;DHT22;54387;53.526;49.300;2022-12-18T08:12:09;1.80;70.40
67557;DHT22;54387;53.526;49.300;2022-12-18T08:14:35;1.80;70.60
67557;DHT22;54387;53.526;49.300;2022-12-18T08:17:01;1.80;70.70
67557;DHT22;54387;53.526;49.300;2022-12-18T08:19:28;1.80;70.90
67557;DHT22;54387;53.526;49.300;2022-12-18T08:21:54;1.80;71.10
67557;DHT22;54387;53.526;49.300;2022-12-18T08:24:20;1.70;71.40
67557;DHT22;54387;53.526;49.300;2022-12-18T08:26:47;1.60;71.70
67557;DHT22;54387;53.526;49.300;2022-12-18T08:29:13;1.60;72.20
67557;DHT22;54387;53.526;49.300;2022-12-18T08:31:39;1.50;72.40
67557;DHT22;54387;53.526;49.300;2022-12-18T08:34:05;1.50;72.70
67557;DHT22;54387;53.526;49.300;2022-12-18T08:36:32;1.50;72.90
67557;DHT22;54387;53.526;49.300;2022-12-18T08:38:58;1.50;73.10
67557;DHT22;54387;53.526;49.300;2022-12-18T08:41:24;1.50;73.30
67557;DHT22;54387;53.526;49.300;2022-12-18T08:43:51;1.50;73.40
67557;DHT22;54387;53.526;49.300;2022-12-18T08:46:39;1.40;73.60
67557;DHT22;54387;53.526;49.300;2022-12-18T08:49:05;1.50;74.00
67557;DHT22;54387;53.526;49.300;2022-12-18T08:51:32;1.40;74.10
67557;DHT22;54387;53.526;49.300;2022-12-18T08:53:58;1.50;74.30
67557;DHT22;54387;53.526;49.300;2022-12-18T08:56:24;1.50;74.40
67557;DHT22;54387;53.526;49.300;2022-12-18T08:58:53;1.50;74.60
67557;DHT22;54387;53.526;49.300;2022-12-18T09:01:20;1.50;74.70
67557;DHT22;54387;53.526;49.300;2022-12-18T09:03:47;1.50;74.60
67557;DHT22;54387;53.526;49.300;2022-12-18T09:06:13;1.40;74.80
67557;DHT22;54387;53.526;49.300;2022-12-18T09:08:40;1.50;74.90
67557;DHT22;54387;53.526;49.300;2022-12-18T09:11:11;1.50;75.00
67557;DHT22;54387;53.526;49.300;2022-12-18T09:13:37;1.60;74.90
67557;DHT22;54387;53.526;49.300;2022-12-18T09:16:03;1.60;75.10
67557;DHT22;54387;53.526;49.300;2022-12-18T09:18:29;1.60;75.20
67557;DHT22;54387;53.526;49.300;2022-12-18T09:20:56;1.60;75.20
67557;DHT22;54387;53.526;49.300;2022-12-18T09:23:22;1.60;75.10
67557;DHT22;54387;53.526;49.300;2022-12-18T09:25:48;1.50;75.10
67557;DHT22;54387;53.526;49.300;2022-12-18T09:28:15;1.50;75.20
67557;DHT22;54387;53.526;49.300;2022-12-18T09:30:42;1.50;75.30
67557;DHT22;54387;53.526;49.300;2022-12-18T09:33:08;1.50;75.50
67557;DHT22;54387;53.526;49.300;2022-12-18T09:35:37;1.60;75.60
67557;DHT22;54387;53.526;49.300;2022-12-18T09:38:04;1.50;75.50
67557;DHT22;54387;53.526;49.300;2022-12-18T09:40:34;1.50;75.50
67557;DHT22;54387;53.526;49.300;2022-12-18T09:43:03;1.50;75.50
67557;DHT22;54387;53.526;49.300;2022-12-18T09:45:37;1.50;75.80
67557;DHT22;54387;53.526;49.300;2022-12-18T09:48:04;1.60;75.90
67557;DHT22;54387;53.526;49.300;2022-12-18T09:50:34;1.60;75.80
67557;DHT22;54387;53.526;49.300;2022-12-18T09:53:10;1.60;75.90
67557;DHT22;54387;53.526;49.300;2022-12-18T09:55:42;1.60;76.10
67557;DHT22;54387;53.526;49.300;2022-12-18T10:00:37;1.60;76.10
67557;DHT22;54387;53.526;49.300;2022-12-18T10:03:13;1.60;76.30
67557;DHT22;54387;53.526;49.300;2022-12-18T10:08:33;1.60;76.40
67557;DHT22;54387;53.526;49.300;2022-12-18T10:11:16;1.60;76.40
67557;DHT22;54387;53.526;49.300;2022-12-18T10:13:57;1.60;76.50
67557;DHT22;54387;53.526;49.300;2022-12-18T10:16:27;1.50;76.90
67557;DHT22;54387;53.526;49.300;2022-12-18T10:26:42;1.60;77.60
67557;DHT22;54387;53.526;49.300;2022-12-18T10:29:14;1.70;77.70
67557;DHT22;54387;53.526;49.300;2022-12-18T10:31:40;1.70;77.40
67557;DHT22;54387;53.526;49.300;2022-12-18T10:34:10;1.70;77.30
67557;DHT22;54387;53.526;49.300;2022-12-18T10:36:36;1.70;77.20
67557;DHT22;54387;53.526;49.300;2022-12-18T10:39:18;1.70;77.10
67557;DHT22;54387;53.526;49.300;2022-12-18T10:41:45;1.70;77.10
67557;DHT22;54387;53.526;49.300;2022-12-18T10:44:14;1.80;77.40
67557;DHT22;54387;53.526;49.300;2022-12-18T10:46:41;1.80;77.30
67557;DHT22;54387;53.526;49.300;2022-12-18T10:49:17;1.90;77.20
67557;DHT22;54387;53.526;49.300;2022-12-18T10:51:43;1.90;77.10
67557;DHT22;54387;53.526;49.300;2022-12-18T10:56:38;1.90;76.80
67557;DHT22;54387;53.526;49.300;2022-12-18T10:59:06;1.90;77.00
67557;DHT22;54387;53.526;49.300;2022-12-18T11:01:52;1.90;77.00
67557;DHT22;54387;53.526;49.300;2022-12-18T11:04:29;1.90;76.80
67557;DHT22;54387;53.526;49.300;2022-12-18T11:07:05;1.90;76.60
67557;DHT22;54387;53.526;49.300;2022-12-18T11:09:33;1.90;76.70
67557;DHT22;54387;53.526;49.300;2022-12-18T11:12:03;1.90;76.90
67557;DHT22;54387;53.526;49.300;2022-12-18T11:14:42;1.90;76.70
67557;DHT22;54387;53.526;49.300;2022-12-18T11:17:19;1.90;76.70
67557;DHT22;54387;53.526;49.300;2022-12-18T11:19:45;1.90;76.50
67557;DHT22;54387;53.526;49.300;2022-12-18T11:22:19;1.90;76.80
67557;DHT22;54387;53.526;49.300;2022-12-18T11:24:52;1.90;76.90
67557;DHT22;54387;53.526;49.300;2022-12-18T11:27:18;2.00;76.80
67557;DHT22;54387;53.526;49.300;2022-12-18T11:29:44;1.90;76.60
67557;DHT22;54387;53.526;49.300;2022-12-18T11:35:37;2.00;76.70
67557;DHT22;54387;53.526;49.300;2022-12-18T11:37:38;2.00;76.50
67557;DHT22;54387;53.526;49.300;2022-12-18T11:40:27;2.00;76.70
67557;DHT22;54387;53.526;49.300;2022-12-18T11:43:17;2.00;76.70
67557;DHT22;54387;53.526;49.300;2022-12-18T11:48:49;2.00;76.40
67557;DHT22;54387;53.526;49.300;2022-12-18T11:51:30;2.00;76.30
67557;DHT22;54387;53.526;49.300;2022-12-18T11:53:59;2.00;76.40
67557;DHT22;54387;53.526;49.300;2022-12-18T11:56:28;2.00;76.30
67557;DHT22;54387;53.526;49.300;2022-12-18T12:01:31;2.00;76.30
67557;DHT22;54387;53.526;49.300;2022-12-18T12:09:34;2.00;76.30
67557;DHT22;54387;53.526;49.300;2022-12-18T12:20:49;2.00;76.20
67557;DHT22;54387;53.526;49.300;2022-12-18T12:26:15;2.00;76.00
67557;DHT22;54387;53.526;49.300;2022-12-18T12:29:00;2.00;76.00
67557;DHT22;54387;53.526;49.300;2022-12-18T12:31:42;2.00;76.10
67557;DHT22;54387;53.526;49.300;2022-12-18T12:36:50;2.10;76.00
67557;DHT22;54387;53.526;49.300;2022-12-18T12:39:18;2.10;76.10
67557;DHT22;54387;53.526;49.300;2022-12-18T12:41:46;2.10;76.00
67557;DHT22;54387;53.526;49.300;2022-12-18T12:44:47;2.20;76.00
67557;DHT22;54387;53.526;49.300;2022-12-18T12:47:24;2.20;75.80
67557;DHT22;54387;53.526;49.300;2022-12-18T12:49:52;2.20;75.80
67557;DHT22;54387;53.526;49.300;2022-12-18T12:52:33;2.20;75.80
67557;DHT22;54387;53.526;49.300;2022-12-18T12:55:00;2.20;75.80
67557;DHT22;54387;53.526;49.300;2022-12-18T12:57:34;2.30;75.70
67557;DHT22;54387;53.526;49.300;2022-12-18T13:00:13;2.30;75.50
67557;DHT22;54387;53.526;49.300;2022-12-18T13:02:56;2.30;75.40
67557;DHT22;54387;53.526;49.300;2022-12-18T13:05:37;2.30;75.40
67557;DHT22;54387;53.526;49.300;2022-12-18T13:08:08;2.30;75.50
67557;DHT22;54387;53.526;49.300;2022-12-18T13:10:35;2.20;75.50
67557;DHT22;54387;53.526;49.300;2022-12-18T13:13:06;2.20;75.80
67557;DHT22;54387;53.526;49.300;2022-12-18T13:18:05;2.20;76.10
67557;DHT22;54387;53.526;49.300;2022-12-18T13:20:35;2.20;76.30
67557;DHT22;54387;53.526;49.300;2022-12-18T13:25:47;2.10;76.50
67557;DHT22;54387;53.526;49.300;2022-12-18T13:28:16;2.20;76.70
67557;DHT22;54387;53.526;49.300;2022-12-18T13:30:44;2.20;76.70
67557;DHT22;54387;53.526;49.300;2022-12-18T13:40:55;2.20;76.50
67557;DHT22;54387;53.526;49.300;2022-12-18T13:45:49;2.30;76.50
67557;DHT22;54387;53.526;49.300;2022-12-18T13:48:17;2.30;76.50
67557;DHT22;54387;53.526;49.300;2022-12-18T13:50:48;2.30;76.50
67557;DHT22;54387;53.526;49.300;2022-12-18T13:53:28;2.30;76.40
67557;DHT22;54387;53.526;49.300;2022-12-18T13:55:55;2.30;76.40
67557;DHT22;54387;53.526;49.300;2022-12-18T13:58:21;2.30;76.50
67557;DHT22;54387;53.526;49.300;2022-12-18T14:01:04;2.30;76.40
67557;DHT22;54387;53.526;49.300;2022-12-18T14:04:07;2.30;76.40
67557;DHT22;54387;53.526;49.300;2022-12-18T14:06:34;2.30;76.50
67557;DHT22;54387;53.526;49.300;2022-12-18T14:09:00;2.30;76.50
67557;DHT22;54387;53.526;49.300;2022-12-18T14:11:28;2.30;76.60
67557;DHT22;54387;53.526;49.300;2022-12-18T14:13:56;2.30;76.60
67557;DHT22;54387;53.526;49.300;2022-12-18T14:16:22;2.30;76.60
67557;DHT22;54387;53.526;49.300;2022-12-18T14:18:55;2.40;76.70
67557;DHT22;54387;53.526;49.300;2022-12-18T14:21:23;2.40;76.40
67557;DHT22;54387;53.526;49.300;2022-12-18T14:24:03;2.40;76.40
67557;DHT22;54387;53.526;49.300;2022-12-18T14:26:29;2.40;76.40
67557;DHT22;54387;53.526;49.300;2022-12-18T14:28:57;2.40;76.40
67557;DHT22;54387;53.526;49.300;2022-12-18T14:31:24;2.50;76.40
67557;DHT22;54387;53.526;49.300;2022-12-18T14:33:51;2.50;76.30
67557;DHT22;54387;53.526;49.300;2022-12-18T14:36:18;2.50;76.30
67557;DHT22;54387;53.526;49.300;2022-12-18T14:38:47;2.50;76.30
67557;DHT22;54387;53.526;49.300;2022-12-18T14:41:15;2.40;76.30
67557;DHT22;54387;53.526;49.300;2022-12-18T14:43:42;2.50;76.50
67557;DHT22;54387;53.526;49.300;2022-12-18T14:46:25;2.50;76.50
67557;DHT22;54387;53.526;49.300;2022-12-18T14:48:52;2.50;76.50
67557;DHT22;54387;53.526;49.300;2022-12-18T14:51:20;2.40;76.70
67557;DHT22;54387;53.526;49.300;2022-12-18T14:53:47;2.50;76.80
67557;DHT22;54387;53.526;49.300;2022-12-18T14:58:59;2.50;77.00
67557;DHT22;54387;53.526;49.300;2022-12-18T15:01:33;2.50;76.90
67557;DHT22;54387;53.526;49.300;2022-12-18T15:04:00;2.50;76.90
67557;DHT22;54387;53.526;49.300;2022-12-18T15:06:36;2.50;76.80
67557;DHT22;54387;53.526;49.300;2022-12-18T15:09:04;2.50;76.80
67557;DHT22;54387;53.526;49.300;2022-12-18T15:11:35;2.50;76.90
67557;DHT22;54387;53.526;49.300;2022-12-18T15:14:40;2.50;76.90
67557;DHT22;54387;53.526;49.300;2022-12-18T15:17:13;2.60;77.00
67557;DHT22;54387;53.526;49.300;2022-12-18T15:19:41;2.60;76.80
67557;DHT22;54387;53.526;49.300;2022-12-18T15:22:20;2.60;76.80
67557;DHT22;54387;53.526;49.300;2022-12-18T15:24:47;2.60;76.80
67557;DHT22;54387;53.526;49.300;2022-12-18T15:27:24;2.70;76.70
67557;DHT22;54387;53.526;49.300;2022-12-18T15:32:26;2.60;76.60
67557;DHT22;54387;53.526;49.300;2022-12-18T15:35:02;2.60;76.70
67557;DHT22;54387;53.526;49.300;2022-12-18T15:37:28;2.60;76.70
67557;DHT22;54387;53.526;49.300;2022-12-18T15:39:54;2.60;76.70
67557;DHT22;54387;53.526;49.300;2022-12-18T15:42:31;2.60;76.60
67557;DHT22;54387;53.526;49.300;2022-12-18T15:45:15;2.70;76.70
67557;DHT22;54387;53.526;49.300;2022-12-18T15:47:41;2.70;76.80
67557;DHT22;54387;53.526;49.300;2022-12-18T15:50:08;2.70;76.80
67557;DHT22;54387;53.526;49.300;2022-12-18T15:52:44;2.70;76.60
67557;DHT22;54387;53.526;49.300;2022-12-18T15:55:14;2.80;76.50
67557;DHT22;54387;53.526;49.300;2022-12-18T15:57:59;2.80;76.40
67557;DHT22;54387;53.526;49.300;2022-12-18T16:00:25;2.80;76.30
67557;DHT22;54387;53.526;49.300;2022-12-18T16:02:52;2.90;76.30
67557;DHT22;54387;53.526;49.300;2022-12-18T16:05:19;2.80;76.10
67557;DHT22;54387;53.526;49.300;2022-12-18T16:07:45;2.90;76.20
67557;DHT22;54387;53.526;49.300;2022-12-18T16:10:12;2.90;76.10
67557;DHT22;54387;53.526;49.300;2022-12-18T16:12:38;2.90;76.10
67557;DHT22;54387;53.526;49.300;2022-12-18T16:15:06;2.90;76.10
67557;DHT22;54387;53.526;49.300;2022-12-18T16:17:33;2.90;76.10
67557;DHT22;54387;53.526;49.300;2022-12-18T16:19:59;2.90;75.90
67557;DHT22;54387;53.526;49.300;2022-12-18T16:22:28;2.90;76.00
67557;DHT22;54387;53.526;49.300;2022-12-18T16:24:55;2.80;76.10
67557;DHT22;54387;53.526;49.300;2022-12-18T16:27:22;2.90;76.30
67557;DHT22;54387;53.526;49.300;2022-12-18T16:29:49;2.90;76.10
67557;DHT22;54387;53.526;49.300;2022-12-18T16:32:16;2.90;76.20
67557;DHT22;54387;53.526;49.300;2022-12-18T16:34:45;2.90;76.10
67557;DHT22;54387;53.526;49.300;2022-12-18T16:37:13;2.90;76.10
67557;DHT22;54387;53.526;49.300;2022-12-18T16:39:39;2.90;76.10
67557;DHT22;54387;53.526;49.300;2022-12-18T16:42:16;2.90;76.10
67557;DHT22;54387;53.526;49.300;2022-12-18T16:44:45;2.90;76.10
67557;DHT22;54387;53.526;49.300;2022-12-18T16:47:13;3.00;76.30
67557;DHT22;54387;53.526;49.300;2022-12-18T16:49:39;3.00;76.30
67557;DHT22;54387;53.526;49.300;2022-12-18T16:52:28;3.00;76.00
67557;DHT22;54387;53.526;49.300;2022-12-18T16:54:55;3.00;76.10
67557;DHT22;54387;53.526;49.300;2022-12-18T16:57:21;2.90;76.00
67557;DHT22;54387;53.526;49.300;2022-12-18T16:59:48;2.90;76.10
67557;DHT22;54387;53.526;49.300;2022-12-18T17:02:18;2.90;76.30
67557;DHT22;54387;53.526;49.300;2022-12-18T17:04:46;2.90;76.40